sensor_id;sensor_type;location;lat;lon;timestamp;temperature;humidity
16267;DHT22;8241;48.786;9.250;2023-06-04T00:02:20;18.50;88.70
16267;DHT22;8241;48.786;9.250;2023-06-04T00:04:47;18.50;88.90
16267;DHT22;8241;48.786;9.250;2023-06-04T00:07:14;18.50;88.70
16267;DHT22;8241;48.786;9.250;2023-06-04T00:09:41;18.40;89.00
16267;DHT22;8241;48.786;9.250;2023-06-04T00:12:09;18.40;89.00
16267;DHT22;8241;48.786;9.250;2023-06-04T00:14:36;18.40;88.80
16267;DHT22;8241;48.786;9.250;2023-06-04T00:17:03;18.40;88.90
16267;DHT22;8241;48.786;9.250;2023-06-04T00:19:35;18.40;88.90
16267;DHT22;8241;48.786;9.250;2023-06-04T00:22:03;18.30;89.00
16267;DHT22;8241;48.786;9.250;2023-06-04T00:24:32;18.30;89.30
16267;DHT22;8241;48.786;9.250;2023-06-04T00:27:01;18.20;89.10
16267;DHT22;8241;48.786;9.250;2023-06-04T00:29:27;18.10;88.80
16267;DHT22;8241;48.786;9.250;2023-06-04T00:31:54;18.10;88.30
16267;DHT22;8241;48.786;9.250;2023-06-04T00:34:21;18.20;87.80
16267;DHT22;8241;48.786;9.250;2023-06-04T00:36:50;18.20;86.90
16267;DHT22;8241;48.786;9.250;2023-06-04T00:39:16;18.20;86.80
16267;DHT22;8241;48.786;9.250;2023-06-04T00:41:43;18.10;87.20
16267;DHT22;8241;48.786;9.250;2023-06-04T00:44:10;18.10;87.20
16267;DHT22;8241;48.786;9.250;2023-06-04T00:46:37;18.00;87.20
16267;DHT22;8241;48.786;9.250;2023-06-04T00:49:05;18.00;87.30
16267;DHT22;8241;48.786;9.250;2023-06-04T00:51:32;18.00;87.20
16267;DHT22;8241;48.786;9.250;2023-06-04T00:54:02;17.90;87.60
16267;DHT22;8241;48.786;9.250;2023-06-04T00:56:34;17.90;87.60
16267;DHT22;8241;48.786;9.250;2023-06-04T00:59:03;17.90;87.50
16267;DHT22;8241;48.786;9.250;2023-06-04T01:01:37;17.90;87.50
16267;DHT22;8241;48.786;9.250;2023-06-04T01:04:14;17.90;87.10
16267;DHT22;8241;48.786;9.250;2023-06-04T01:06:50;17.90;86.50
16267;DHT22;8241;48.786;9.250;2023-06-04T01:09:18;17.90;86.00
16267;DHT22;8241;48.786;9.250;2023-06-04T01:11:45;17.90;86.00
16267;DHT22;8241;48.786;9.250;2023-06-04T01:14:12;17.90;86.10
16267;DHT22;8241;48.786;9.250;2023-06-04T01:16:47;17.90;86.50
16267;DHT22;8241;48.786;9.250;2023-06-04T01:19:35;17.90;86.40
16267;DHT22;8241;48.786;9.250;2023-06-04T01:22:13;17.90;86.20
16267;DHT22;8241;48.786;9.250;2023-06-04T01:24:52;17.90;86.20
16267;DHT22;8241;48.786;9.250;2023-06-04T01:27:24;17.90;86.30
16267;DHT22;8241;48.786;9.250;2023-06-04T01:29:51;17.80;86.50
16267;DHT22;8241;48.786;9.250;2023-06-04T01:32:24;17.80;86.50
16267;DHT22;8241;48.786;9.250;2023-06-04T01:34:51;17.80;86.50
16267;DHT22;8241;48.786;9.250;2023-06-04T01:37:21;17.80;86.50
16267;DHT22;8241;48.786;9.250;2023-06-04T01:39:49;17.80;86.60
16267;DHT22;8241;48.786;9.250;2023-06-04T01:42:18;17.80;86.80
16267;DHT22;8241;48.786;9.250;2023-06-04T01:44:45;17.70;86.80
16267;DHT22;8241;48.786;9.250;2023-06-04T01:47:15;17.70;86.80
16267;DHT22;8241;48.786;9.250;2023-06-04T01:49:42;17.70;86.70
16267;DHT22;8241;48.786;9.250;2023-06-04T01:52:08;17.70;86.40
16267;DHT22;8241;48.786;9.250;2023-06-04T01:54:36;17.70;86.70
16267;DHT22;8241;48.786;9.250;2023-06-04T01:57:06;17.60;86.70
16267;DHT22;8241;48.786;9.250;2023-06-04T01:59:35;17.60;86.60
16267;DHT22;8241;48.786;9.250;2023-06-04T02:02:02;17.60;86.80
16267;DHT22;8241;48.786;9.250;2023-06-04T02:04:29;17.60;87.10
16267;DHT22;8241;48.786;9.250;2023-06-04T02:06:56;17.50;87.10
16267;DHT22;8241;48.786;9.250;2023-06-04T02:09:25;17.50;87.30
16267;DHT22;8241;48.786;9.250;2023-06-04T02:11:53;17.40;87.10
16267;DHT22;8241;48.786;9.250;2023-06-04T02:14:21;17.30;88.00
16267;DHT22;8241;48.786;9.250;2023-06-04T02:16:48;17.20;88.20
16267;DHT22;8241;48.786;9.250;2023-06-04T02:19:15;17.20;88.10
16267;DHT22;8241;48.786;9.250;2023-06-04T02:21:44;17.20;88.40
16267;DHT22;8241;48.786;9.250;2023-06-04T02:24:11;17.20;88.20
16267;DHT22;8241;48.786;9.250;2023-06-04T02:26:38;17.10;87.20
16267;DHT22;8241;48.786;9.250;2023-06-04T02:29:05;17.10;86.30
16267;DHT22;8241;48.786;9.250;2023-06-04T02:31:33;17.10;85.80
16267;DHT22;8241;48.786;9.250;2023-06-04T02:34:03;17.10;85.50
16267;DHT22;8241;48.786;9.250;2023-06-04T02:36:30;17.20;85.20
16267;DHT22;8241;48.786;9.250;2023-06-04T02:38:59;17.20;85.10
16267;DHT22;8241;48.786;9.250;2023-06-04T02:41:27;17.20;85.20
16267;DHT22;8241;48.786;9.250;2023-06-04T02:43:57;17.10;85.60
16267;DHT22;8241;48.786;9.250;2023-06-04T02:46:24;17.10;85.50
16267;DHT22;8241;48.786;9.250;2023-06-04T02:48:55;17.00;85.60
16267;DHT22;8241;48.786;9.250;2023-06-04T02:51:23;17.00;86.70
16267;DHT22;8241;48.786;9.250;2023-06-04T02:53:51;17.00;87.20
16267;DHT22;8241;48.786;9.250;2023-06-04T02:56:18;17.00;87.60
16267;DHT22;8241;48.786;9.250;2023-06-04T02:58:49;17.00;88.00
16267;DHT22;8241;48.786;9.250;2023-06-04T03:01:20;17.00;88.30
16267;DHT22;8241;48.786;9.250;2023-06-04T03:03:51;16.90;88.60
16267;DHT22;8241;48.786;9.250;2023-06-04T03:06:25;16.90;88.70
16267;DHT22;8241;48.786;9.250;2023-06-04T03:08:53;16.80;89.00
16267;DHT22;8241;48.786;9.250;2023-06-04T03:11:19;16.80;88.90
16267;DHT22;8241;48.786;9.250;2023-06-04T03:13:48;16.80;88.80
16267;DHT22;8241;48.786;9.250;2023-06-04T03:16:15;16.80;88.80
16267;DHT22;8241;48.786;9.250;2023-06-04T03:18:42;16.80;88.90
16267;DHT22;8241;48.786;9.250;2023-06-04T03:21:12;16.70;88.80
16267;DHT22;8241;48.786;9.250;2023-06-04T03:23:41;16.70;88.70
16267;DHT22;8241;48.786;9.250;2023-06-04T03:26:08;16.70;88.70
16267;DHT22;8241;48.786;9.250;2023-06-04T03:28:39;16.70;88.70
16267;DHT22;8241;48.786;9.250;2023-06-04T03:31:09;16.60;88.80
16267;DHT22;8241;48.786;9.250;2023-06-04T03:33:36;16.60;89.20
16267;DHT22;8241;48.786;9.250;2023-06-04T03:36:03;16.60;89.50
16267;DHT22;8241;48.786;9.250;2023-06-04T03:38:31;16.50;90.00
16267;DHT22;8241;48.786;9.250;2023-06-04T03:41:00;16.50;90.00
16267;DHT22;8241;48.786;9.250;2023-06-04T03:43:27;16.50;90.10
16267;DHT22;8241;48.786;9.250;2023-06-04T03:45:59;16.50;90.00
16267;DHT22;8241;48.786;9.250;2023-06-04T03:48:26;16.50;90.00
16267;DHT22;8241;48.786;9.250;2023-06-04T03:50:53;16.50;90.00
16267;DHT22;8241;48.786;9.250;2023-06-04T03:53:20;16.50;90.00
16267;DHT22;8241;48.786;9.250;2023-06-04T03:55:47;16.50;89.40
16267;DHT22;8241;48.786;9.250;2023-06-04T03:58:16;16.50;89.50
16267;DHT22;8241;48.786;9.250;2023-06-04T04:00:47;16.50;89.30
16267;DHT22;8241;48.786;9.250;2023-06-04T04:03:14;16.50;88.80
16267;DHT22;8241;48.786;9.250;2023-06-04T04:05:42;16.50;88.50
16267;DHT22;8241;48.786;9.250;2023-06-04T04:08:09;16.50;88.00
16267;DHT22;8241;48.786;9.250;2023-06-04T04:10:37;16.50;88.00
16267;DHT22;8241;48.786;9.250;2023-06-04T04:13:04;16.50;87.60
16267;DHT22;8241;48.786;9.250;2023-06-04T04:15:36;16.50;87.40
16267;DHT22;8241;48.786;9.250;2023-06-04T04:18:04;16.50;87.50
16267;DHT22;8241;48.786;9.250;2023-06-04T04:20:34;16.50;87.40
16267;DHT22;8241;48.786;9.250;2023-06-04T04:23:05;16.60;87.40
16267;DHT22;8241;48.786;9.250;2023-06-04T04:25:35;16.60;87.30
16267;DHT22;8241;48.786;9.250;2023-06-04T04:28:04;16.50;87.30
16267;DHT22;8241;48.786;9.250;2023-06-04T04:30:32;16.50;87.30
16267;DHT22;8241;48.786;9.250;2023-06-04T04:33:03;16.60;87.80
16267;DHT22;8241;48.786;9.250;2023-06-04T04:35:36;16.60;88.00
16267;DHT22;8241;48.786;9.250;2023-06-04T04:38:04;16.60;87.90
16267;DHT22;8241;48.786;9.250;2023-06-04T04:40:39;16.60;87.50
16267;DHT22;8241;48.786;9.250;2023-06-04T04:43:07;16.70;87.20
16267;DHT22;8241;48.786;9.250;2023-06-04T04:45:36;16.70;87.20
16267;DHT22;8241;48.786;9.250;2023-06-04T04:48:06;16.70;86.80
16267;DHT22;8241;48.786;9.250;2023-06-04T04:50:33;16.80;86.20
16267;DHT22;8241;48.786;9.250;2023-06-04T04:53:01;16.80;86.20
16267;DHT22;8241;48.786;9.250;2023-06-04T04:55:29;16.80;86.50
16267;DHT22;8241;48.786;9.250;2023-06-04T04:58:00;16.80;86.60
16267;DHT22;8241;48.786;9.250;2023-06-04T05:00:27;16.90;86.90
16267;DHT22;8241;48.786;9.250;2023-06-04T05:02:55;16.80;86.40
16267;DHT22;8241;48.786;9.250;2023-06-04T05:05:24;16.90;86.30
16267;DHT22;8241;48.786;9.250;2023-06-04T05:07:51;16.90;86.90
16267;DHT22;8241;48.786;9.250;2023-06-04T05:10:23;16.90;86.80
16267;DHT22;8241;48.786;9.250;2023-06-04T05:12:51;17.00;86.80
16267;DHT22;8241;48.786;9.250;2023-06-04T05:15:19;17.00;86.70
16267;DHT22;8241;48.786;9.250;2023-06-04T05:17:47;17.00;86.00
16267;DHT22;8241;48.786;9.250;2023-06-04T05:20:16;17.10;85.20
16267;DHT22;8241;48.786;9.250;2023-06-04T05:22:48;17.10;85.10
16267;DHT22;8241;48.786;9.250;2023-06-04T05:25:17;17.10;85.90
16267;DHT22;8241;48.786;9.250;2023-06-04T05:27:44;17.20;85.90
16267;DHT22;8241;48.786;9.250;2023-06-04T05:30:17;17.30;85.90
16267;DHT22;8241;48.786;9.250;2023-06-04T05:32:44;17.30;85.80
16267;DHT22;8241;48.786;9.250;2023-06-04T05:35:14;17.40;86.70
16267;DHT22;8241;48.786;9.250;2023-06-04T05:37:43;17.40;83.70
16267;DHT22;8241;48.786;9.250;2023-06-04T05:40:13;17.50;81.20
16267;DHT22;8241;48.786;9.250;2023-06-04T05:42:41;17.60;82.00
16267;DHT22;8241;48.786;9.250;2023-06-04T05:45:11;17.70;81.20
16267;DHT22;8241;48.786;9.250;2023-06-04T05:47:40;17.80;80.20
16267;DHT22;8241;48.786;9.250;2023-06-04T05:50:08;17.90;79.60
16267;DHT22;8241;48.786;9.250;2023-06-04T05:52:36;18.10;79.40
16267;DHT22;8241;48.786;9.250;2023-06-04T05:55:10;18.20;79.40
16267;DHT22;8241;48.786;9.250;2023-06-04T05:57:39;18.30;80.00
16267;DHT22;8241;48.786;9.250;2023-06-04T06:00:07;18.30;78.80
16267;DHT22;8241;48.786;9.250;2023-06-04T06:02:39;18.30;78.50
16267;DHT22;8241;48.786;9.250;2023-06-04T06:05:16;18.30;79.00
16267;DHT22;8241;48.786;9.250;2023-06-04T06:07:43;18.40;80.00
16267;DHT22;8241;48.786;9.250;2023-06-04T06:10:11;18.60;79.60
16267;DHT22;8241;48.786;9.250;2023-06-04T06:12:39;19.00;77.70
16267;DHT22;8241;48.786;9.250;2023-06-04T06:15:07;19.30;76.30
16267;DHT22;8241;48.786;9.250;2023-06-04T06:17:34;19.60;76.80
16267;DHT22;8241;48.786;9.250;2023-06-04T06:20:02;20.00;75.50
16267;DHT22;8241;48.786;9.250;2023-06-04T06:22:31;20.30;73.60
16267;DHT22;8241;48.786;9.250;2023-06-04T06:24:59;20.50;74.20
16267;DHT22;8241;48.786;9.250;2023-06-04T06:27:26;20.70;73.00
16267;DHT22;8241;48.786;9.250;2023-06-04T06:29:54;20.80;72.00
16267;DHT22;8241;48.786;9.250;2023-06-04T06:32:24;21.10;72.30
16267;DHT22;8241;48.786;9.250;2023-06-04T06:34:50;21.30;71.80
16267;DHT22;8241;48.786;9.250;2023-06-04T06:37:18;21.50;71.90
16267;DHT22;8241;48.786;9.250;2023-06-04T06:39:44;21.80;70.80
16267;DHT22;8241;48.786;9.250;2023-06-04T06:42:14;21.90;70.00
16267;DHT22;8241;48.786;9.250;2023-06-04T06:44:45;22.00;69.50
16267;DHT22;8241;48.786;9.250;2023-06-04T06:47:15;22.10;69.60
16267;DHT22;8241;48.786;9.250;2023-06-04T06:49:42;22.20;69.40
16267;DHT22;8241;48.786;9.250;2023-06-04T06:52:10;22.10;69.80
16267;DHT22;8241;48.786;9.250;2023-06-04T06:54:39;22.10;70.30
16267;DHT22;8241;48.786;9.250;2023-06-04T06:57:06;22.10;69.80
16267;DHT22;8241;48.786;9.250;2023-06-04T06:59:34;22.00;69.90
16267;DHT22;8241;48.786;9.250;2023-06-04T07:02:02;21.90;70.50
16267;DHT22;8241;48.786;9.250;2023-06-04T07:04:30;21.80;71.70
16267;DHT22;8241;48.786;9.250;2023-06-04T07:06:57;21.80;70.70
16267;DHT22;8241;48.786;9.250;2023-06-04T07:09:25;21.70;70.90
16267;DHT22;8241;48.786;9.250;2023-06-04T07:11:52;21.50;71.70
16267;DHT22;8241;48.786;9.250;2023-06-04T07:14:21;21.30;72.50
16267;DHT22;8241;48.786;9.250;2023-06-04T07:16:48;21.10;72.70
16267;DHT22;8241;48.786;9.250;2023-06-04T07:19:15;21.10;73.30
16267;DHT22;8241;48.786;9.250;2023-06-04T07:21:43;21.20;72.80
16267;DHT22;8241;48.786;9.250;2023-06-04T07:24:10;21.20;72.40
16267;DHT22;8241;48.786;9.250;2023-06-04T07:26:37;21.20;72.60
16267;DHT22;8241;48.786;9.250;2023-06-04T07:29:05;21.30;73.40
16267;DHT22;8241;48.786;9.250;2023-06-04T07:31:32;21.40;73.40
16267;DHT22;8241;48.786;9.250;2023-06-04T07:34:01;21.50;72.50
16267;DHT22;8241;48.786;9.250;2023-06-04T07:36:28;21.60;72.90
16267;DHT22;8241;48.786;9.250;2023-06-04T07:38:58;21.80;72.70
16267;DHT22;8241;48.786;9.250;2023-06-04T07:41:25;22.10;71.70
16267;DHT22;8241;48.786;9.250;2023-06-04T07:43:52;22.50;71.00
16267;DHT22;8241;48.786;9.250;2023-06-04T07:46:20;23.00;69.80
16267;DHT22;8241;48.786;9.250;2023-06-04T07:48:47;23.50;68.10
16267;DHT22;8241;48.786;9.250;2023-06-04T07:51:14;23.90;66.90
16267;DHT22;8241;48.786;9.250;2023-06-04T07:53:42;24.10;68.00
16267;DHT22;8241;48.786;9.250;2023-06-04T07:56:11;24.30;67.30
16267;DHT22;8241;48.786;9.250;2023-06-04T07:58:38;24.30;67.10
16267;DHT22;8241;48.786;9.250;2023-06-04T08:01:06;24.30;67.20
16267;DHT22;8241;48.786;9.250;2023-06-04T08:03:33;24.10;67.10
16267;DHT22;8241;48.786;9.250;2023-06-04T08:06:03;23.80;68.20
16267;DHT22;8241;48.786;9.250;2023-06-04T08:08:30;23.50;68.70
16267;DHT22;8241;48.786;9.250;2023-06-04T08:10:57;23.20;69.20
16267;DHT22;8241;48.786;9.250;2023-06-04T08:13:29;23.10;70.00
16267;DHT22;8241;48.786;9.250;2023-06-04T08:15:56;22.90;70.20
16267;DHT22;8241;48.786;9.250;2023-06-04T08:18:23;22.80;70.00
16267;DHT22;8241;48.786;9.250;2023-06-04T08:20:50;22.70;70.40
16267;DHT22;8241;48.786;9.250;2023-06-04T08:23:17;22.60;70.50
16267;DHT22;8241;48.786;9.250;2023-06-04T08:25:44;22.60;71.00
16267;DHT22;8241;48.786;9.250;2023-06-04T08:28:13;22.60;70.80
16267;DHT22;8241;48.786;9.250;2023-06-04T08:30:42;22.70;70.60
16267;DHT22;8241;48.786;9.250;2023-06-04T08:33:10;22.70;70.80
16267;DHT22;8241;48.786;9.250;2023-06-04T08:35:37;22.70;70.20
16267;DHT22;8241;48.786;9.250;2023-06-04T08:38:04;22.70;70.20
16267;DHT22;8241;48.786;9.250;2023-06-04T08:40:31;22.80;70.40
16267;DHT22;8241;48.786;9.250;2023-06-04T08:42:58;22.80;70.20
16267;DHT22;8241;48.786;9.250;2023-06-04T08:45:26;22.90;70.10
16267;DHT22;8241;48.786;9.250;2023-06-04T08:47:56;23.00;70.10
16267;DHT22;8241;48.786;9.250;2023-06-04T08:50:24;23.10;70.60
16267;DHT22;8241;48.786;9.250;2023-06-04T08:52:53;23.20;69.40
16267;DHT22;8241;48.786;9.250;2023-06-04T08:55:21;23.30;68.90
16267;DHT22;8241;48.786;9.250;2023-06-04T08:57:50;23.40;70.10
16267;DHT22;8241;48.786;9.250;2023-06-04T09:00:18;23.40;69.60
16267;DHT22;8241;48.786;9.250;2023-06-04T09:02:46;23.40;69.60
16267;DHT22;8241;48.786;9.250;2023-06-04T09:05:19;23.50;69.20
16267;DHT22;8241;48.786;9.250;2023-06-04T09:07:52;23.50;68.20
16267;DHT22;8241;48.786;9.250;2023-06-04T09:10:22;23.50;67.80
16267;DHT22;8241;48.786;9.250;2023-06-04T09:12:51;23.50;68.90
16267;DHT22;8241;48.786;9.250;2023-06-04T09:15:18;23.50;68.80
16267;DHT22;8241;48.786;9.250;2023-06-04T09:17:47;23.60;68.80
16267;DHT22;8241;48.786;9.250;2023-06-04T09:20:21;23.60;68.90
16267;DHT22;8241;48.786;9.250;2023-06-04T09:22:48;23.70;68.30
16267;DHT22;8241;48.786;9.250;2023-06-04T09:25:22;23.70;68.60
16267;DHT22;8241;48.786;9.250;2023-06-04T09:27:51;23.70;68.20
16267;DHT22;8241;48.786;9.250;2023-06-04T09:30:18;23.80;68.90
16267;DHT22;8241;48.786;9.250;2023-06-04T09:32:45;23.90;66.80
16267;DHT22;8241;48.786;9.250;2023-06-04T09:35:13;23.80;66.90
16267;DHT22;8241;48.786;9.250;2023-06-04T09:37:43;23.90;64.70
16267;DHT22;8241;48.786;9.250;2023-06-04T09:40:12;23.90;66.20
16267;DHT22;8241;48.786;9.250;2023-06-04T09:42:43;24.00;66.20
16267;DHT22;8241;48.786;9.250;2023-06-04T09:45:10;23.90;65.00
16267;DHT22;8241;48.786;9.250;2023-06-04T09:47:44;23.90;65.20
16267;DHT22;8241;48.786;9.250;2023-06-04T09:50:11;23.90;64.70
16267;DHT22;8241;48.786;9.250;2023-06-04T09:52:38;23.90;65.10
16267;DHT22;8241;48.786;9.250;2023-06-04T09:55:17;24.00;65.00
16267;DHT22;8241;48.786;9.250;2023-06-04T09:57:49;24.10;64.50
16267;DHT22;8241;48.786;9.250;2023-06-04T10:00:17;24.20;64.60
16267;DHT22;8241;48.786;9.250;2023-06-04T10:02:44;24.20;63.90
16267;DHT22;8241;48.786;9.250;2023-06-04T10:05:12;24.20;64.00
16267;DHT22;8241;48.786;9.250;2023-06-04T10:07:41;24.30;62.10
16267;DHT22;8241;48.786;9.250;2023-06-04T10:10:11;24.30;62.60
16267;DHT22;8241;48.786;9.250;2023-06-04T10:12:41;24.30;63.10
16267;DHT22;8241;48.786;9.250;2023-06-04T10:15:11;24.40;64.00
16267;DHT22;8241;48.786;9.250;2023-06-04T10:17:39;24.40;64.70
16267;DHT22;8241;48.786;9.250;2023-06-04T10:20:07;24.50;65.10
16267;DHT22;8241;48.786;9.250;2023-06-04T10:22:38;24.60;63.90
16267;DHT22;8241;48.786;9.250;2023-06-04T10:25:06;24.60;64.00
16267;DHT22;8241;48.786;9.250;2023-06-04T10:27:35;24.60;64.30
16267;DHT22;8241;48.786;9.250;2023-06-04T10:30:05;24.60;64.00
16267;DHT22;8241;48.786;9.250;2023-06-04T10:32:34;24.50;64.30
16267;DHT22;8241;48.786;9.250;2023-06-04T10:35:04;24.60;65.60
16267;DHT22;8241;48.786;9.250;2023-06-04T10:37:33;24.60;63.80
16267;DHT22;8241;48.786;9.250;2023-06-04T10:40:00;24.60;63.50
16267;DHT22;8241;48.786;9.250;2023-06-04T10:42:38;24.70;64.20
16267;DHT22;8241;48.786;9.250;2023-06-04T10:45:10;24.70;63.10
16267;DHT22;8241;48.786;9.250;2023-06-04T10:47:37;24.60;63.80
16267;DHT22;8241;48.786;9.250;2023-06-04T10:50:10;24.60;64.10
16267;DHT22;8241;48.786;9.250;2023-06-04T10:52:51;24.60;63.20
16267;DHT22;8241;48.786;9.250;2023-06-04T10:55:18;24.60;63.90
16267;DHT22;8241;48.786;9.250;2023-06-04T10:57:52;24.60;63.90
16267;DHT22;8241;48.786;9.250;2023-06-04T11:00:20;24.60;64.60
16267;DHT22;8241;48.786;9.250;2023-06-04T11:02:54;24.70;63.90
16267;DHT22;8241;48.786;9.250;2023-06-04T11:05:22;24.80;63.50
16267;DHT22;8241;48.786;9.250;2023-06-04T11:08:00;24.90;64.50
16267;DHT22;8241;48.786;9.250;2023-06-04T11:10:38;25.00;64.30
16267;DHT22;8241;48.786;9.250;2023-06-04T11:13:05;25.10;62.40
16267;DHT22;8241;48.786;9.250;2023-06-04T11:15:41;25.10;62.40
16267;DHT22;8241;48.786;9.250;2023-06-04T11:18:13;25.30;63.60
16267;DHT22;8241;48.786;9.250;2023-06-04T11:20:44;25.30;62.60
16267;DHT22;8241;48.786;9.250;2023-06-04T11:23:12;25.50;63.50
16267;DHT22;8241;48.786;9.250;2023-06-04T11:25:39;25.60;61.90
16267;DHT22;8241;48.786;9.250;2023-06-04T11:28:08;25.60;62.60
16267;DHT22;8241;48.786;9.250;2023-06-04T11:30:42;25.70;61.20
16267;DHT22;8241;48.786;9.250;2023-06-04T11:33:09;25.80;61.20
16267;DHT22;8241;48.786;9.250;2023-06-04T11:35:42;25.80;60.70
16267;DHT22;8241;48.786;9.250;2023-06-04T11:38:09;25.70;60.40
16267;DHT22;8241;48.786;9.250;2023-06-04T11:40:36;25.50;61.40
16267;DHT22;8241;48.786;9.250;2023-06-04T11:43:03;25.50;61.20
16267;DHT22;8241;48.786;9.250;2023-06-04T11:45:30;25.60;61.60
16267;DHT22;8241;48.786;9.250;2023-06-04T11:47:59;25.70;61.70
16267;DHT22;8241;48.786;9.250;2023-06-04T11:50:27;25.80;60.00
16267;DHT22;8241;48.786;9.250;2023-06-04T11:52:54;25.70;59.80
16267;DHT22;8241;48.786;9.250;2023-06-04T11:55:22;25.70;61.20
16267;DHT22;8241;48.786;9.250;2023-06-04T11:57:50;25.90;61.30
16267;DHT22;8241;48.786;9.250;2023-06-04T12:00:19;26.00;60.20
16267;DHT22;8241;48.786;9.250;2023-06-04T12:02:51;26.00;59.50
16267;DHT22;8241;48.786;9.250;2023-06-04T12:05:21;26.00;60.00
16267;DHT22;8241;48.786;9.250;2023-06-04T12:07:49;26.10;59.80
16267;DHT22;8241;48.786;9.250;2023-06-04T12:10:19;26.10;60.10
16267;DHT22;8241;48.786;9.250;2023-06-04T12:12:53;26.10;60.10
16267;DHT22;8241;48.786;9.250;2023-06-04T12:15:20;26.20;60.40
16267;DHT22;8241;48.786;9.250;2023-06-04T12:17:50;26.30;60.40
16267;DHT22;8241;48.786;9.250;2023-06-04T12:20:35;26.50;60.20
16267;DHT22;8241;48.786;9.250;2023-06-04T12:23:02;26.60;59.30
16267;DHT22;8241;48.786;9.250;2023-06-04T12:25:29;26.60;59.30
16267;DHT22;8241;48.786;9.250;2023-06-04T12:27:56;26.60;59.80
16267;DHT22;8241;48.786;9.250;2023-06-04T12:30:33;26.70;58.40
16267;DHT22;8241;48.786;9.250;2023-06-04T12:33:00;26.60;57.90
16267;DHT22;8241;48.786;9.250;2023-06-04T12:35:29;26.50;58.00
16267;DHT22;8241;48.786;9.250;2023-06-04T12:37:55;26.40;58.80
16267;DHT22;8241;48.786;9.250;2023-06-04T12:40:22;26.50;58.70
16267;DHT22;8241;48.786;9.250;2023-06-04T12:42:50;26.50;59.00
16267;DHT22;8241;48.786;9.250;2023-06-04T12:45:17;26.60;59.40
16267;DHT22;8241;48.786;9.250;2023-06-04T12:47:44;26.60;58.60
16267;DHT22;8241;48.786;9.250;2023-06-04T12:50:13;26.60;59.00
16267;DHT22;8241;48.786;9.250;2023-06-04T12:52:41;26.70;58.10
16267;DHT22;8241;48.786;9.250;2023-06-04T12:55:10;26.70;59.00
16267;DHT22;8241;48.786;9.250;2023-06-04T12:57:37;26.70;58.50
16267;DHT22;8241;48.786;9.250;2023-06-04T13:00:05;26.70;58.30
16267;DHT22;8241;48.786;9.250;2023-06-04T13:02:36;26.70;58.90
16267;DHT22;8241;48.786;9.250;2023-06-04T13:05:05;26.80;59.00
16267;DHT22;8241;48.786;9.250;2023-06-04T13:07:35;27.00;59.00
16267;DHT22;8241;48.786;9.250;2023-06-04T13:10:07;27.00;58.80
16267;DHT22;8241;48.786;9.250;2023-06-04T13:12:34;27.00;56.90
16267;DHT22;8241;48.786;9.250;2023-06-04T13:15:01;27.00;57.70
16267;DHT22;8241;48.786;9.250;2023-06-04T13:17:28;27.00;58.00
16267;DHT22;8241;48.786;9.250;2023-06-04T13:19:55;27.10;57.60
16267;DHT22;8241;48.786;9.250;2023-06-04T13:22:22;27.30;57.20
16267;DHT22;8241;48.786;9.250;2023-06-04T13:24:49;27.30;56.50
16267;DHT22;8241;48.786;9.250;2023-06-04T13:27:20;27.30;56.70
16267;DHT22;8241;48.786;9.250;2023-06-04T13:29:49;27.50;57.50
16267;DHT22;8241;48.786;9.250;2023-06-04T13:32:16;27.50;56.20
16267;DHT22;8241;48.786;9.250;2023-06-04T13:34:42;27.80;55.90
16267;DHT22;8241;48.786;9.250;2023-06-04T13:37:09;27.90;56.10
16267;DHT22;8241;48.786;9.250;2023-06-04T13:39:38;28.00;55.70
16267;DHT22;8241;48.786;9.250;2023-06-04T13:42:05;28.10;56.10
16267;DHT22;8241;48.786;9.250;2023-06-04T13:44:33;28.40;55.50
16267;DHT22;8241;48.786;9.250;2023-06-04T13:47:00;28.50;55.80
16267;DHT22;8241;48.786;9.250;2023-06-04T13:49:29;28.60;54.90
16267;DHT22;8241;48.786;9.250;2023-06-04T13:51:55;28.60;55.20
16267;DHT22;8241;48.786;9.250;2023-06-04T13:54:22;28.70;54.00
16267;DHT22;8241;48.786;9.250;2023-06-04T13:56:49;28.80;54.40
16267;DHT22;8241;48.786;9.250;2023-06-04T13:59:16;28.90;54.10
16267;DHT22;8241;48.786;9.250;2023-06-04T14:01:47;28.80;53.10
16267;DHT22;8241;48.786;9.250;2023-06-04T14:04:14;28.70;53.50
16267;DHT22;8241;48.786;9.250;2023-06-04T14:06:41;28.70;52.80
16267;DHT22;8241;48.786;9.250;2023-06-04T14:09:11;28.60;53.80
16267;DHT22;8241;48.786;9.250;2023-06-04T14:11:38;28.70;54.50
16267;DHT22;8241;48.786;9.250;2023-06-04T14:14:06;28.70;53.00
16267;DHT22;8241;48.786;9.250;2023-06-04T14:16:33;28.70;53.80
16267;DHT22;8241;48.786;9.250;2023-06-04T14:19:01;28.90;54.30
16267;DHT22;8241;48.786;9.250;2023-06-04T14:21:28;29.30;52.70
16267;DHT22;8241;48.786;9.250;2023-06-04T14:23:55;29.30;52.60
16267;DHT22;8241;48.786;9.250;2023-06-04T14:26:22;29.20;52.70
16267;DHT22;8241;48.786;9.250;2023-06-04T14:28:50;29.30;52.10
16267;DHT22;8241;48.786;9.250;2023-06-04T14:31:17;29.50;51.30
16267;DHT22;8241;48.786;9.250;2023-06-04T14:33:44;29.20;51.90
16267;DHT22;8241;48.786;9.250;2023-06-04T14:36:12;28.90;53.00
16267;DHT22;8241;48.786;9.250;2023-06-04T14:38:39;28.70;53.20
16267;DHT22;8241;48.786;9.250;2023-06-04T14:41:06;28.70;53.20
16267;DHT22;8241;48.786;9.250;2023-06-04T14:43:33;28.70;53.40
16267;DHT22;8241;48.786;9.250;2023-06-04T14:46:00;28.80;53.10
16267;DHT22;8241;48.786;9.250;2023-06-04T14:48:29;28.60;52.40
16267;DHT22;8241;48.786;9.250;2023-06-04T14:50:59;28.50;53.10
16267;DHT22;8241;48.786;9.250;2023-06-04T14:53:30;28.60;52.90
16267;DHT22;8241;48.786;9.250;2023-06-04T14:55:57;28.50;52.90
16267;DHT22;8241;48.786;9.250;2023-06-04T14:58:26;28.30;53.50
16267;DHT22;8241;48.786;9.250;2023-06-04T15:00:55;28.00;52.80
16267;DHT22;8241;48.786;9.250;2023-06-04T15:03:23;27.70;53.30
16267;DHT22;8241;48.786;9.250;2023-06-04T15:05:51;27.70;53.30
16267;DHT22;8241;48.786;9.250;2023-06-04T15:08:17;27.60;53.00
16267;DHT22;8241;48.786;9.250;2023-06-04T15:10:46;27.50;53.50
16267;DHT22;8241;48.786;9.250;2023-06-04T15:13:13;27.40;53.90
16267;DHT22;8241;48.786;9.250;2023-06-04T15:15:40;27.50;53.60
16267;DHT22;8241;48.786;9.250;2023-06-04T15:18:07;27.60;53.90
16267;DHT22;8241;48.786;9.250;2023-06-04T15:20:34;27.70;53.50
16267;DHT22;8241;48.786;9.250;2023-06-04T15:23:03;27.70;53.20
16267;DHT22;8241;48.786;9.250;2023-06-04T15:25:30;27.80;53.80
16267;DHT22;8241;48.786;9.250;2023-06-04T15:28:01;27.70;53.20
16267;DHT22;8241;48.786;9.250;2023-06-04T15:30:28;27.80;53.40
16267;DHT22;8241;48.786;9.250;2023-06-04T15:32:55;27.70;53.80
16267;DHT22;8241;48.786;9.250;2023-06-04T15:35:26;27.60;53.70
16267;DHT22;8241;48.786;9.250;2023-06-04T15:37:52;27.60;53.40
16267;DHT22;8241;48.786;9.250;2023-06-04T15:40:20;27.60;53.90
16267;DHT22;8241;48.786;9.250;2023-06-04T15:42:46;27.60;53.70
16267;DHT22;8241;48.786;9.250;2023-06-04T15:45:15;27.60;53.70
16267;DHT22;8241;48.786;9.250;2023-06-04T15:47:44;27.50;54.10
16267;DHT22;8241;48.786;9.250;2023-06-04T15:50:11;27.50;54.10
16267;DHT22;8241;48.786;9.250;2023-06-04T15:52:38;27.50;53.30
16267;DHT22;8241;48.786;9.250;2023-06-04T15:55:10;27.40;53.90